Time;durP1;ratioP1;P1;durP2;ratioP2;P2;SDS_P1;SDS_P2;PMS_P1;PMS_P2;Temp;Humidity;BMP_temperature;BMP_pressure;BME280_temperature;BME280_humidity;BME280_pressure;Samples;Min_cycle;Max_cycle;Signal;HPM_P1;HPM_P2
2023/05/25 00:01:53;;;;;;;21.10;9.90;;;;;;;13.05;100.00;101107.84;218374;1288;142850;-91
2023/05/25 00:06:53;;;;;;;16.40;8.20;;;;;;;13.05;100.00;101106.34;218868;1289;108222;-92
2023/05/25 00:11:54;;;;;;;21.20;10.00;;;;;;;13.05;100.00;101112.17;218463;1288;140891;-89
2023/05/25 00:16:55;;;;;;;17.00;9.30;;;;;;;13.05;100.00;101109.90;218761;1288;139645;-91
2023/05/25 00:21:55;;;;;;;18.30;8.80;;;;;;;13.07;100.00;101110.30;218463;1288;142102;-92
2023/05/25 00:26:56;;;;;;;19.90;9.80;;;;;;;13.08;100.00;101110.57;218918;1288;139407;-91
2023/05/25 00:31:57;;;;;;;14.90;9.60;;;;;;;13.08;100.00;101108.12;218345;1288;234991;-90
2023/05/25 00:36:57;;;;;;;18.00;9.50;;;;;;;13.09;100.00;101113.58;219182;1288;95986;-96
2023/05/25 00:41:58;;;;;;;21.90;10.60;;;;;;;13.09;100.00;101114.36;218326;1288;140759;-91
2023/05/25 00:47:00;;;;;;;15.10;9.00;;;;;;;13.07;100.00;101117.73;218773;1288;140195;-91
2023/05/25 00:52:00;;;;;;;20.70;11.60;;;;;;;13.05;100.00;101126.47;218288;1288;141340;-91
2023/05/25 00:57:05;;;;;;;17.20;9.00;;;;;;;13.03;100.00;101121.40;218818;1288;139464;-90
2023/05/25 01:02:10;;;;;;;14.50;9.00;;;;;;;13.04;100.00;101127.48;218350;1288;142609;-91
2023/05/25 01:07:16;;;;;;;17.10;9.20;;;;;;;13.04;100.00;101122.11;218999;1289;139387;-91
2023/05/25 01:12:18;;;;;;;14.50;8.10;;;;;;;13.04;100.00;101124.25;218312;1288;141554;-91
2023/05/25 01:17:19;;;;;;;16.10;9.10;;;;;;;13.05;100.00;101131.84;219070;1288;139010;-91
2023/05/25 01:22:23;;;;;;;19.10;9.10;;;;;;;13.07;100.00;101134.86;218501;1288;140935;-91
2023/05/25 01:27:34;;;;;;;19.00;10.10;;;;;;;13.09;100.00;101137.95;218873;1288;140092;-91
2023/05/25 01:32:36;;;;;;;16.60;8.20;;;;;;;13.10;100.00;101137.44;218451;1289;141490;-91
2023/05/25 01:37:39;;;;;;;16.00;8.70;;;;;;;13.11;100.00;101139.58;218799;1288;139352;-90
2023/05/25 01:42:39;;;;;;;17.20;9.30;;;;;;;13.11;100.00;101136.35;218465;1288;142103;-91
2023/05/25 01:47:48;;;;;;;14.80;8.10;;;;;;;13.12;100.00;101139.12;218984;1288;139371;-91
2023/05/25 01:53:02;;;;;;;18.10;8.70;;;;;;;13.13;100.00;101137.39;218319;1288;142748;-90
2023/05/25 01:58:05;;;;;;;16.70;10.20;;;;;;;13.15;100.00;101139.30;218811;1288;139773;-91
2023/05/25 02:03:06;;;;;;;16.80;9.20;;;;;;;13.15;100.00;101141.29;218517;1288;143281;-91
2023/05/25 02:08:06;;;;;;;17.70;8.50;;;;;;;13.14;100.00;101136.94;218909;1288;139410;-89
2023/05/25 02:13:07;;;;;;;17.60;9.90;;;;;;;13.14;100.00;101136.38;218488;1288;141570;-90
2023/05/25 02:18:07;;;;;;;18.90;9.90;;;;;;;13.12;100.00;101128.38;219160;1288;95708;-88
2023/05/25 02:23:07;;;;;;;15.80;9.00;;;;;;;13.11;100.00;101126.71;218469;1289;140551;-91
2023/05/25 02:28:08;;;;;;;14.30;7.50;;;;;;;13.11;100.00;101131.27;218849;1288;139463;-90
2023/05/25 02:33:08;;;;;;;19.40;8.60;;;;;;;13.10;100.00;101132.38;218542;1289;141292;-91
2023/05/25 02:38:08;;;;;;;18.40;10.00;;;;;;;13.07;100.00;101134.63;218893;1288;139515;-91
2023/05/25 02:43:09;;;;;;;16.20;8.70;;;;;;;13.04;100.00;101135.94;218173;1290;304437;-92
2023/05/25 02:48:09;;;;;;;16.60;8.30;;;;;;;12.98;100.00;101135.93;219016;1288;95747;-89
2023/05/25 02:53:10;;;;;;;21.70;8.80;;;;;;;12.91;99.87;101144.89;218359;1288;140643;-91
2023/05/25 02:58:11;;;;;;;17.70;8.10;;;;;;;12.83;99.67;101142.27;219057;1288;139965;-91
2023/05/25 03:03:11;;;;;;;15.70;8.60;;;;;;;12.73;99.86;101141.41;218361;1288;142870;-91
2023/05/25 03:08:12;;;;;;;16.90;8.50;;;;;;;12.61;99.93;101145.12;219013;1288;139245;-90
2023/05/25 03:13:12;;;;;;;18.10;8.80;;;;;;;12.49;99.98;101147.08;218414;1288;141424;-91
2023/05/25 03:18:12;;;;;;;17.70;9.00;;;;;;;12.41;99.96;101150.59;218886;1288;96077;-91
2023/05/25 03:23:13;;;;;;;15.80;9.00;;;;;;;12.32;100.00;101147.75;218481;1288;141578;-91
2023/05/25 03:28:13;;;;;;;14.60;7.90;;;;;;;12.23;100.00;101145.73;219008;1288;140283;-90
2023/05/25 03:33:14;;;;;;;16.40;9.40;;;;;;;12.16;100.00;101147.49;218241;1288;142393;-90
2023/05/25 03:38:14;;;;;;;15.60;10.10;;;;;;;12.10;100.00;101156.55;218768;1288;139109;-90
2023/05/25 03:43:14;;;;;;;25.60;10.70;;;;;;;12.06;100.00;101162.56;218282;1288;142909;-90
2023/05/25 03:48:15;;;;;;;19.70;10.00;;;;;;;12.02;100.00;101160.52;219017;1288;95772;-91
2023/05/25 03:53:15;;;;;;;17.40;9.40;;;;;;;11.98;100.00;101165.97;218528;1288;142873;-91
2023/05/25 03:58:17;;;;;;;19.00;9.60;;;;;;;11.95;100.00;101169.45;218855;1288;139438;-89
2023/05/25 04:03:17;;;;;;;18.10;10.10;;;;;;;11.92;100.00;101170.83;218370;1289;144807;-90
2023/05/25 04:08:21;;;;;;;21.90;11.30;;;;;;;11.92;100.00;101172.48;218972;1288;140367;-90
2023/05/25 04:13:21;;;;;;;22.80;12.40;;;;;;;11.91;100.00;101176.16;218482;1288;141162;-90
2023/05/25 04:18:22;;;;;;;17.50;9.60;;;;;;;11.92;100.00;101181.38;218974;1288;95750;-90
2023/05/25 04:23:22;;;;;;;20.70;10.50;;;;;;;11.95;100.00;101183.95;218428;1288;140713;-91
2023/05/25 04:28:23;;;;;;;18.20;9.90;;;;;;;11.96;100.00;101180.76;218969;1288;140474;-92
2023/05/25 04:33:23;;;;;;;21.50;10.60;;;;;;;12.00;100.00;101183.25;218427;1288;140968;-93
2023/05/25 04:38:24;;;;;;;20.80;10.10;;;;;;;12.04;100.00;101188.53;218816;1288;140639;-92
2023/05/25 04:43:24;;;;;;;19.20;11.50;;;;;;;12.08;100.00;101189.23;218281;1288;142063;-92
2023/05/25 04:48:27;;;;;;;21.70;10.10;;;;;;;12.15;100.00;101187.71;219048;1288;95699;-90
2023/05/25 04:53:28;;;;;;;16.40;8.70;;;;;;;12.22;100.00;101186.40;218470;1288;140958;-89
2023/05/25 04:58:28;;;;;;;15.70;8.30;;;;;;;12.30;100.00;101182.36;219022;1288;140143;-92
2023/05/25 05:03:29;;;;;;;17.70;9.10;;;;;;;12.40;100.00;101183.70;218538;1288;141306;-92
2023/05/25 05:08:30;;;;;;;14.30;8.10;;;;;;;12.51;100.00;101185.61;218819;1288;139303;-89
2023/05/25 05:13:30;;;;;;;18.40;9.10;;;;;;;12.65;100.00;101184.78;218552;1288;140575;-94
2023/05/25 05:18:31;;;;;;;15.80;9.10;;;;;;;12.82;100.00;101181.09;218972;1288;96040;-89
2023/05/25 05:23:33;;;;;;;18.60;8.10;;;;;;;13.06;100.00;101175.19;218320;1288;142426;-90
2023/05/25 05:28:37;;;;;;;16.40;8.30;;;;;;;13.45;100.00;101176.63;218720;1288;139346;-93
2023/05/25 05:33:39;;;;;;;13.50;7.50;;;;;;;13.94;100.00;101184.56;218284;1288;140961;-93
2023/05/25 05:38:40;;;;;;;16.80;7.60;;;;;;;14.54;100.00;101191.42;218956;1288;139327;-94
2023/05/25 05:43:42;;;;;;;14.20;6.60;;;;;;;15.20;100.00;101193.48;218313;1292;141153;-92
2023/05/25 05:48:43;;;;;;;14.30;6.40;;;;;;;15.90;99.90;101189.42;218918;1288;95752;-92
2023/05/25 05:53:43;;;;;;;12.10;6.70;;;;;;;16.54;97.33;101184.31;218317;1288;140807;-93
2023/05/25 05:58:46;;;;;;;14.10;6.70;;;;;;;17.17;96.48;101187.75;218799;1290;139349;-94
2023/05/25 06:03:47;;;;;;;15.70;6.50;;;;;;;17.86;92.90;101185.04;218730;1290;139205;-93
2023/05/25 06:08:48;;;;;;;11.70;5.40;;;;;;;18.46;90.50;101188.80;218286;1289;140750;-93
2023/05/25 06:13:48;;;;;;;14.20;6.40;;;;;;;19.07;88.69;101197.84;218855;1289;139124;-92
2023/05/25 06:18:49;;;;;;;12.10;5.80;;;;;;;19.62;86.82;101203.55;218476;1288;141075;-90
2023/05/25 06:23:49;;;;;;;17.10;5.20;;;;;;;20.13;83.88;101208.97;219016;1289;139167;-92
2023/05/25 06:28:50;;;;;;;14.40;5.40;;;;;;;20.63;82.52;101208.72;218512;1288;142185;-91
2023/05/25 06:33:50;;;;;;;14.10;4.80;;;;;;;21.09;79.76;101213.31;218845;1289;139264;-90
2023/05/25 06:38:51;;;;;;;14.30;5.00;;;;;;;21.52;77.61;101215.73;218502;1288;140951;-92
2023/05/25 06:43:51;;;;;;;15.50;5.10;;;;;;;21.86;75.11;101215.95;218993;1289;139147;-91
2023/05/25 06:48:51;;;;;;;10.60;3.80;;;;;;;22.21;73.82;101223.64;218567;1292;141071;-91
2023/05/25 06:53:54;;;;;;;11.20;4.30;;;;;;;22.60;72.67;101223.80;218821;1288;138572;-90
2023/05/25 06:58:54;;;;;;;11.20;4.00;;;;;;;23.03;69.36;101225.55;218339;1290;140721;-92
2023/05/25 07:03:55;;;;;;;10.80;3.90;;;;;;;23.26;69.00;101228.46;218952;1289;138513;-93
2023/05/25 07:08:55;;;;;;;9.30;3.80;;;;;;;23.64;66.76;101227.36;218358;1289;140440;-95
2023/05/25 07:13:56;;;;;;;12.10;4.30;;;;;;;23.83;65.40;101227.27;218828;1288;138495;-93
2023/05/25 07:18:57;;;;;;;8.30;3.70;;;;;;;24.00;61.76;101225.23;218669;1289;139951;-92
2023/05/25 07:23:57;;;;;;;10.00;3.90;;;;;;;24.12;62.51;101231.99;218975;1288;138251;-88
2023/05/25 07:28:58;;;;;;;13.90;3.60;;;;;;;24.20;61.53;101228.52;218304;1288;140486;-89
2023/05/25 07:33:58;;;;;;;8.10;3.50;;;;;;;24.29;61.56;101226.40;219046;1288;138501;-90
2023/05/25 07:39:00;;;;;;;12.00;4.10;;;;;;;24.37;60.67;101227.31;218465;1288;140481;-85
2023/05/25 07:44:00;;;;;;;11.60;3.60;;;;;;;24.42;59.64;101229.40;218782;1289;138372;-91
2023/05/25 07:49:02;;;;;;;9.60;3.60;;;;;;;24.33;59.83;101230.98;218556;1288;142405;-90
2023/05/25 07:54:02;;;;;;;10.80;3.40;;;;;;;24.08;58.52;101234.68;219059;1288;138517;-86
2023/05/25 07:59:03;;;;;;;9.30;4.20;;;;;;;23.96;59.10;101237.33;218558;1288;141623;-91
2023/05/25 08:04:03;;;;;;;10.20;3.90;;;;;;;24.16;59.22;101239.25;218865;1288;138234;-91
2023/05/25 08:09:05;;;;;;;9.90;3.70;;;;;;;24.57;59.79;101247.02;218228;1290;140301;-93
2023/05/25 08:14:05;;;;;;;9.80;4.30;;;;;;;25.09;57.75;101250.77;218741;1288;138114;-87
2023/05/25 08:19:06;;;;;;;15.20;4.20;;;;;;;25.62;58.07;101242.13;218409;1288;140677;-89
2023/05/25 08:24:07;;;;;;;9.90;4.00;;;;;;;26.20;57.23;101246.33;218887;1288;96123;-89
2023/05/25 08:29:07;;;;;;;13.10;4.10;;;;;;;26.76;55.46;101243.55;218449;1288;139609;-90
2023/05/25 08:34:08;;;;;;;22.00;5.20;;;;;;;27.02;54.37;101241.02;218815;1288;139045;-90
2023/05/25 08:39:09;;;;;;;9.30;4.50;;;;;;;27.34;54.29;101240.33;218513;1288;140370;-88
2023/05/25 08:44:10;;;;;;;13.20;4.40;;;;;;;27.88;53.07;101237.52;218893;1288;138749;-89
2023/05/25 08:49:12;;;;;;;10.70;4.90;;;;;;;28.22;51.64;101243.22;218212;1288;139873;-90
2023/05/25 08:54:15;;;;;;;10.90;4.40;;;;;;;28.38;52.04;101240.36;218918;1288;95761;-90
2023/05/25 09:00:03;;;;;;;13.60;4.70;;;;;;;28.92;50.55;101241.81;218308;1289;140756;-90
2023/05/25 09:05:07;;;;;;;50.90;6.70;;;;;;;29.10;47.14;101242.74;218764;1288;138394;-91
2023/05/25 09:10:07;;;;;;;22.80;5.50;;;;;;;29.11;47.86;101242.55;218442;1288;141076;-90
2023/05/25 09:15:12;;;;;;;12.60;4.70;;;;;;;28.95;46.13;101243.46;218913;1288;138336;-93
2023/05/25 09:20:14;;;;;;;8.90;3.80;;;;;;;28.78;47.07;101243.82;218271;1288;140388;-90
2023/05/25 09:25:20;;;;;;;12.20;4.50;;;;;;;28.78;46.65;101245.97;218783;1288;138153;-90
2023/05/25 09:30:21;;;;;;;11.10;4.10;;;;;;;28.51;46.70;101249.28;218456;1288;141657;-90
2023/05/25 09:35:22;;;;;;;11.40;4.10;;;;;;;28.63;47.48;101245.50;218863;1288;138190;-89
2023/05/25 09:40:25;;;;;;;10.30;3.90;;;;;;;28.60;46.17;101249.23;218356;1288;140547;-90
2023/05/25 09:45:26;;;;;;;10.60;4.50;;;;;;;28.30;46.62;101247.46;218808;1289;138378;-91
2023/05/25 09:50:28;;;;;;;9.70;4.10;;;;;;;28.27;45.87;101246.58;218286;1289;140181;-92
2023/05/25 09:55:34;;;;;;;10.00;3.70;;;;;;;28.02;45.97;101249.88;218823;1288;138355;-92
2023/05/25 10:00:35;;;;;;;10.30;3.80;;;;;;;27.80;45.76;101256.76;218399;1289;140449;-91
2023/05/25 10:05:35;;;;;;;10.60;4.50;;;;;;;27.66;45.79;101257.29;218881;1288;138297;-93
2023/05/25 10:10:37;;;;;;;10.30;4.50;;;;;;;27.71;46.45;101255.59;218330;1288;141451;-92
2023/05/25 10:15:39;;;;;;;8.20;4.00;;;;;;;27.59;45.81;101252.84;218805;1288;138267;-92
2023/05/25 10:20:42;;;;;;;11.50;4.60;;;;;;;27.68;46.14;101254.68;218295;1288;140156;-93
2023/05/25 10:25:45;;;;;;;8.60;4.40;;;;;;;27.62;45.64;101252.77;219001;1288;138578;-91
2023/05/25 10:30:48;;;;;;;10.70;4.50;;;;;;;27.58;45.45;101259.85;218637;1289;140263;-95
2023/05/25 10:35:49;;;;;;;10.60;4.40;;;;;;;27.57;45.16;101258.13;219074;1288;138514;-92
2023/05/25 10:40:50;;;;;;;13.90;5.50;;;;;;;27.58;45.36;101255.73;218359;1288;141809;-91
2023/05/25 10:45:51;;;;;;;12.00;5.00;;;;;;;27.39;44.47;101258.46;218917;1288;138365;-90
2023/05/25 10:50:52;;;;;;;11.60;5.50;;;;;;;27.25;44.74;101267.02;218340;1288;140432;-93
2023/05/25 10:55:52;;;;;;;7.60;4.70;;;;;;;27.33;45.18;101262.77;219133;1288;138326;-92
2023/05/25 11:00:58;;;;;;;7.70;4.20;;;;;;;27.64;46.15;101251.27;218663;1288;140068;-93
2023/05/25 11:05:59;;;;;;;11.20;4.10;;;;;;;28.01;44.61;101255.58;218718;1288;137786;-93
2023/05/25 11:11:00;;;;;;;8.40;4.40;;;;;;;27.96;44.82;101248.95;218242;1288;140554;-88
2023/05/25 11:16:20;;;;;;;9.30;5.00;;;;;;;28.46;44.85;101249.58;218867;1288;138447;-90
2023/05/25 11:21:25;;;;;;;10.00;4.10;;;;;;;29.10;43.59;101242.19;218371;1288;139447;-90
2023/05/25 11:26:28;;;;;;;8.60;4.10;;;;;;;29.18;42.81;101244.58;218887;1288;139816;-91
2023/05/25 11:31:32;;;;;;;9.00;4.40;;;;;;;29.39;41.53;101234.95;218375;1288;141547;-89
2023/05/25 11:36:36;;;;;;;10.00;4.30;;;;;;;29.19;39.95;101238.86;219138;1288;111309;-94
2023/05/25 11:41:39;;;;;;;9.00;4.10;;;;;;;28.92;42.14;101237.95;218366;1288;141019;-92
2023/05/25 11:46:42;;;;;;;8.70;4.30;;;;;;;29.11;42.25;101232.27;218937;1288;139214;-92
2023/05/25 11:51:43;;;;;;;10.20;4.00;;;;;;;29.14;40.73;101229.56;218450;1288;139900;-89
2023/05/25 11:56:44;;;;;;;7.60;3.60;;;;;;;28.93;39.99;101225.75;218957;1288;138429;-91
2023/05/25 12:02:01;;;;;;;9.40;4.20;;;;;;;29.00;42.12;101220.53;218230;1288;139981;-94
2023/05/25 12:07:03;;;;;;;8.90;4.60;;;;;;;29.41;41.74;101214.86;219010;1288;95690;-93
2023/05/25 12:12:04;;;;;;;8.40;4.40;;;;;;;29.76;40.35;101208.46;218681;1288;139684;-90
2023/05/25 12:17:05;;;;;;;8.40;4.10;;;;;;;29.83;40.23;101215.20;218838;1288;138155;-91
2023/05/25 12:22:06;;;;;;;9.50;4.20;;;;;;;29.67;40.80;101214.30;218444;1288;140252;-95
2023/05/25 12:27:25;;;;;;;10.20;4.40;;;;;;;29.77;39.21;101210.54;218963;1288;138364;-91
2023/05/25 12:32:26;;;;;;;8.70;4.70;;;;;;;29.67;39.96;101209.04;218577;1288;140145;-91
2023/05/25 12:37:26;;;;;;;8.80;4.40;;;;;;;29.95;39.49;101203.10;219192;1288;138069;-94
2023/05/25 12:42:29;;;;;;;7.90;3.60;;;;;;;29.83;39.89;101207.08;218369;1288;140090;-91
2023/05/25 12:47:31;;;;;;;9.40;3.80;;;;;;;29.70;39.91;101198.86;218946;1288;138265;-95
2023/05/25 12:52:39;;;;;;;10.80;4.30;;;;;;;29.79;39.78;101198.14;218275;1288;140264;-94
2023/05/25 12:57:39;;;;;;;7.80;3.90;;;;;;;29.85;39.31;101187.35;218886;1288;138307;-91
2023/05/25 13:02:44;;;;;;;7.50;3.80;;;;;;;29.75;39.71;101183.89;218421;1288;139989;-92
2023/05/25 13:07:45;;;;;;;;;;;;;;;29.82;38.98;101183.80;219046;1288;138328;-95
2023/05/25 13:12:46;;;;;;;9.80;3.70;;;;;;;29.69;39.49;101188.11;218767;1288;126677;-92
2023/05/25 13:17:49;;;;;;;7.90;3.10;;;;;;;29.70;39.46;101181.39;218942;1287;138036;-94
2023/05/25 13:22:51;;;;;;;8.40;3.20;;;;;;;29.40;39.11;101182.73;218462;1288;140665;-92
2023/05/25 13:27:53;;;;;;;6.70;3.40;;;;;;;29.19;39.66;101180.95;218998;1288;138191;-94
2023/05/25 13:32:53;;;;;;;8.00;3.70;;;;;;;29.11;39.23;101172.64;218414;1288;141415;-95
2023/05/25 13:37:54;;;;;;;7.20;2.60;;;;;;;29.10;40.19;101170.30;219056;1288;138257;-91
2023/05/25 13:42:56;;;;;;;7.10;2.90;;;;;;;29.11;39.93;101167.13;218678;1288;139718;-95
2023/05/25 13:47:57;;;;;;;5.60;3.10;;;;;;;29.07;40.53;101165.35;218897;1290;138785;-95
2023/05/25 13:53:00;;;;;;;6.70;2.90;;;;;;;28.82;39.25;101159.25;218403;1289;139894;-95
2023/05/25 13:58:01;;;;;;;6.60;2.90;;;;;;;28.77;40.41;101159.30;218913;1288;138193;-92
2023/05/25 14:03:01;;;;;;;8.50;3.10;;;;;;;28.88;40.40;101153.19;218555;1288;139738;-96
2023/05/25 14:08:03;;;;;;;13.80;3.70;;;;;;;28.92;39.46;101140.59;219003;1288;136977;-96
2023/05/25 14:13:04;;;;;;;5.70;2.70;;;;;;;28.65;38.00;101129.23;218522;1288;140348;-94
2023/05/25 14:18:04;;;;;;;7.20;2.80;;;;;;;28.38;39.99;101132.77;219015;1288;138013;-96
2023/05/25 14:23:10;;;;;;;7.60;2.80;;;;;;;28.23;39.62;101128.16;218431;1288;140643;-96
2023/05/25 14:28:11;;;;;;;6.20;2.90;;;;;;;28.23;38.81;101126.61;218900;1288;138438;-94
2023/05/25 14:33:13;;;;;;;11.90;3.80;;;;;;;27.93;39.43;101122.55;218689;1288;140049;-95
2023/05/25 14:38:13;;;;;;;7.10;2.80;;;;;;;27.71;39.27;101116.30;219347;1288;138820;-95
2023/05/25 14:43:14;;;;;;;6.20;2.90;;;;;;;27.46;39.71;101112.70;215026;1288;5412998;-95
2023/05/25 14:48:21;;;;;;;7.50;3.00;;;;;;;27.37;40.83;101114.12;219466;1288;95804;-94
2023/05/25 14:53:22;;;;;;;7.20;2.40;;;;;;;27.37;41.00;101114.84;218819;1288;141081;-95
2023/05/25 14:58:22;;;;;;;8.60;2.80;;;;;;;27.25;39.99;101107.92;219205;1287;138298;-94
2023/05/25 15:03:23;;;;;;;6.60;2.50;;;;;;;26.94;39.66;101102.37;218432;1288;141299;-95
2023/05/25 15:08:23;;;;;;;12.30;2.90;;;;;;;26.68;40.93;101099.30;219108;1288;138219;-94
2023/05/25 15:13:24;;;;;;;9.10;3.30;;;;;;;26.70;40.97;101100.98;218656;1288;140287;-96
2023/05/25 15:18:24;;;;;;;7.10;2.60;;;;;;;26.65;40.54;101095.54;219504;1288;95947;-91
2023/05/25 15:23:40;;;;;;;8.80;3.00;;;;;;;26.46;39.33;101097.49;218855;1288;139813;-96
2023/05/25 15:28:41;;;;;;;6.60;2.90;;;;;;;26.23;40.28;101101.10;218513;1288;138398;-93
2023/05/25 15:33:41;;;;;;;5.90;2.80;;;;;;;26.04;40.74;101102.78;218213;1288;139628;-96
2023/05/25 15:38:43;;;;;;;7.40;2.80;;;;;;;25.78;40.69;101101.16;218672;1288;139648;-94
2023/05/25 15:43:53;;;;;;;7.60;2.60;;;;;;;25.45;40.92;101094.13;217884;1288;139950;-92
2023/05/25 15:48:53;;;;;;;7.40;2.70;;;;;;;25.17;41.54;101095.05;218117;1288;141721;-95
2023/05/25 15:53:54;;;;;;;6.90;2.90;;;;;;;24.99;42.03;101091.23;218668;1288;138669;-93
2023/05/25 15:58:54;;;;;;;9.00;2.70;;;;;;;24.75;42.44;101088.27;218015;1288;140059;-94
2023/05/25 16:03:54;;;;;;;6.30;2.40;;;;;;;24.55;42.56;101085.01;218614;1288;138801;-95
2023/05/25 16:08:57;;;;;;;7.90;3.20;;;;;;;24.34;42.89;101093.10;217907;1289;141976;-93
2023/05/25 16:13:57;;;;;;;8.80;3.40;;;;;;;24.11;42.73;101092.52;218620;1288;138893;-92
2023/05/25 16:18:58;;;;;;;5.30;2.40;;;;;;;23.88;43.60;101089.75;217872;1288;140714;-93
2023/05/25 16:23:58;;;;;;;8.50;3.00;;;;;;;23.68;44.16;101086.52;218524;1288;139219;-93
2023/05/25 16:28:59;;;;;;;7.30;2.30;;;;;;;23.49;44.67;101086.92;217959;1288;140869;-92
2023/05/25 16:34:01;;;;;;;6.70;2.80;;;;;;;23.28;44.56;101089.15;218316;1288;138175;-94
2023/05/25 16:39:02;;;;;;;7.80;2.90;;;;;;;23.04;45.24;101087.39;217824;1288;141286;-93
2023/05/25 16:44:03;;;;;;;8.90;2.60;;;;;;;22.83;45.22;101081.98;218549;1288;138696;-94
2023/05/25 16:49:04;;;;;;;5.30;2.20;;;;;;;22.66;46.27;101078.95;218022;1288;141337;-91
2023/05/25 16:54:04;;;;;;;5.20;2.60;;;;;;;22.54;46.40;101083.52;218478;1288;137924;-92
2023/05/25 16:59:05;;;;;;;6.20;3.00;;;;;;;22.40;46.65;101084.93;217925;1288;140437;-91
2023/05/25 17:04:05;;;;;;;9.10;2.80;;;;;;;22.19;46.76;101084.05;218462;1288;138294;-92
2023/05/25 17:09:07;;;;;;;7.00;2.50;;;;;;;22.04;47.60;101080.80;217902;1288;141493;-92
2023/05/25 17:14:08;;;;;;;9.40;3.00;;;;;;;21.88;47.26;101081.80;218353;1288;138507;-93
2023/05/25 17:19:09;;;;;;;6.60;2.50;;;;;;;21.67;47.47;101075.08;217903;1288;139877;-93
2023/05/25 17:24:10;;;;;;;6.00;2.50;;;;;;;21.50;47.81;101080.43;218590;1288;96611;-93
2023/05/25 17:29:10;;;;;;;5.80;2.90;;;;;;;21.34;47.87;101082.40;217917;1288;140120;-92
2023/05/25 17:34:11;;;;;;;11.10;3.90;;;;;;;21.20;48.59;101085.75;218440;1288;138278;-93
2023/05/25 17:39:11;;;;;;;8.50;3.20;;;;;;;21.06;48.85;101090.63;217919;1288;140741;-93
2023/05/25 17:44:12;;;;;;;9.50;3.10;;;;;;;20.88;48.98;101090.34;218409;1288;138459;-91
2023/05/25 17:49:12;;;;;;;8.00;3.20;;;;;;;20.75;49.32;101088.92;217907;1288;140471;-92
2023/05/25 17:54:17;;;;;;;6.50;3.00;;;;;;;20.59;49.78;101088.11;218477;1288;104112;-92
2023/05/25 17:59:17;;;;;;;5.40;2.60;;;;;;;20.45;50.31;101088.00;217913;1288;141480;-91
2023/05/25 18:04:18;;;;;;;7.80;3.00;;;;;;;20.33;51.25;101091.40;218394;1288;139195;-92
2023/05/25 18:09:19;;;;;;;7.20;2.60;;;;;;;20.20;51.90;101091.08;217892;1288;140006;-91
2023/05/25 18:14:19;;;;;;;7.20;3.10;;;;;;;20.05;52.35;101090.92;218409;1288;138760;-92
2023/05/25 18:19:20;;;;;;;7.50;3.30;;;;;;;19.92;52.98;101094.40;217907;1288;140289;-90
2023/05/25 18:24:20;;;;;;;7.40;2.90;;;;;;;19.78;53.69;101102.06;218535;1288;96118;-91
2023/05/25 18:29:21;;;;;;;7.50;3.20;;;;;;;19.62;54.46;101106.94;217925;1288;140060;-90
2023/05/25 18:34:21;;;;;;;6.20;3.30;;;;;;;19.49;55.14;101118.94;218540;1288;138390;-92
2023/05/25 18:39:22;;;;;;;10.20;3.90;;;;;;;19.33;55.53;101122.20;217989;1288;139863;-91
2023/05/25 18:44:22;;;;;;;9.50;4.00;;;;;;;19.16;56.35;101135.64;218274;1289;138728;-92
2023/05/25 18:49:23;;;;;;;8.60;3.30;;;;;;;19.03;56.71;101139.38;217934;1288;140049;-91
2023/05/25 18:54:23;;;;;;;8.90;3.90;;;;;;;18.92;57.52;101143.65;218496;1288;95958;-91
2023/05/25 18:59:24;;;;;;;12.20;4.60;;;;;;;18.82;58.18;101145.45;217824;1288;140788;-91
2023/05/25 19:04:24;;;;;;;8.60;3.60;;;;;;;18.66;59.24;101150.78;218395;1288;138650;-93
2023/05/25 19:09:25;;;;;;;9.60;4.10;;;;;;;18.50;60.45;101155.40;217757;1288;140604;-92
2023/05/25 19:14:25;;;;;;;12.40;4.70;;;;;;;18.31;61.24;101156.60;218224;1288;138192;-90
2023/05/25 19:19:26;;;;;;;11.90;4.80;;;;;;;18.13;62.48;101162.23;217918;1288;140492;-92
2023/05/25 19:24:26;;;;;;;12.00;5.40;;;;;;;17.98;63.37;101168.73;218525;1288;95927;-92
2023/05/25 19:29:27;;;;;;;13.10;5.50;;;;;;;17.85;64.29;101172.95;217700;1289;141524;-90
2023/05/25 19:34:27;;;;;;;10.70;4.90;;;;;;;17.71;65.05;101177.73;218388;1288;138456;-92
2023/05/25 19:39:30;;;;;;;13.70;6.50;;;;;;;17.59;65.58;101178.52;217779;1288;141064;-91
2023/05/25 19:44:30;;;;;;;18.50;7.00;;;;;;;17.45;66.71;101182.02;218463;1288;139789;-91
2023/05/25 19:49:31;;;;;;;13.00;5.70;;;;;;;17.30;67.25;101179.67;217747;1288;141288;-92
2023/05/25 19:54:31;;;;;;;13.60;6.60;;;;;;;17.19;67.98;101182.25;218486;1288;105552;-92
2023/05/25 19:59:32;;;;;;;13.10;6.70;;;;;;;17.05;69.20;101186.60;217844;1288;141345;-91
2023/05/25 20:04:33;;;;;;;14.10;6.60;;;;;;;16.88;69.89;101193.58;218342;1288;138218;-90
2023/05/25 20:09:34;;;;;;;15.40;6.30;;;;;;;16.75;70.30;101193.43;217874;1288;140214;-89
2023/05/25 20:14:34;;;;;;;12.60;5.70;;;;;;;16.63;70.59;101193.14;218484;1288;138753;-91
2023/05/25 20:19:35;;;;;;;12.50;6.20;;;;;;;16.48;71.19;101198.70;217968;1288;142493;-93
2023/05/25 20:24:35;;;;;;;11.70;6.50;;;;;;;16.34;71.84;101204.55;218552;1288;95992;-90
2023/05/25 20:29:36;;;;;;;16.00;6.80;;;;;;;16.21;72.23;101212.24;217876;1289;140821;-89
2023/05/25 20:34:36;;;;;;;15.30;7.10;;;;;;;16.08;72.68;101214.94;218379;1288;139102;-89
2023/05/25 20:39:37;;;;;;;14.30;6.50;;;;;;;15.95;73.83;101224.59;217850;1288;141918;-89
2023/05/25 20:44:37;;;;;;;15.40;7.00;;;;;;;15.77;74.20;101232.80;218464;1288;139058;-92
2023/05/25 20:49:38;;;;;;;13.20;6.70;;;;;;;15.67;74.66;101234.35;217887;1288;142455;-91
2023/05/25 20:54:43;;;;;;;14.80;6.90;;;;;;;15.60;74.45;101237.58;218281;1290;97359;-92
2023/05/25 20:59:44;;;;;;;10.70;5.40;;;;;;;15.52;74.98;101239.84;217776;1291;140852;-91
2023/05/25 21:04:44;;;;;;;12.60;5.80;;;;;;;15.43;75.20;101240.77;218181;1288;139239;-90
2023/05/25 21:09:45;;;;;;;12.90;5.60;;;;;;;15.34;75.64;101245.55;217717;1288;141658;-89
2023/05/25 21:14:45;;;;;;;9.80;4.90;;;;;;;15.24;75.93;101246.03;218398;1288;139654;-88
2023/05/25 21:19:47;;;;;;;9.70;4.80;;;;;;;15.14;76.19;101250.09;217879;1289;141381;-88
2023/05/25 21:24:48;;;;;;;15.60;6.10;;;;;;;15.03;76.81;101254.31;218529;1288;96202;-88
2023/05/25 21:29:49;;;;;;;11.90;4.70;;;;;;;14.92;77.16;101256.45;217891;1290;141483;-89
2023/05/25 21:34:49;;;;;;;11.20;4.40;;;;;;;14.82;77.52;101259.15;218215;1289;139129;-88
2023/05/25 21:39:50;;;;;;;11.70;5.40;;;;;;;14.73;77.52;101258.23;217839;1288;142024;-88
2023/05/25 21:44:50;;;;;;;9.10;4.60;;;;;;;14.64;78.12;101264.41;218377;1288;139663;-88
2023/05/25 21:49:51;;;;;;;13.80;5.00;;;;;;;14.55;78.64;101264.48;217886;1289;141576;-88
2023/05/25 21:54:51;;;;;;;12.20;6.10;;;;;;;14.43;78.69;101266.77;218557;1288;95994;-87
2023/05/25 21:59:52;;;;;;;15.20;5.10;;;;;;;14.31;79.60;101269.18;217923;1288;141553;-86
2023/05/25 22:04:52;;;;;;;10.40;4.60;;;;;;;14.16;79.51;101273.67;218266;1288;138962;-87
2023/05/25 22:09:52;;;;;;;13.50;4.80;;;;;;;14.05;80.30;101276.48;217914;1288;141492;-86
2023/05/25 22:14:53;;;;;;;11.90;4.90;;;;;;;13.93;80.89;101275.81;218490;1288;139448;-87
2023/05/25 22:19:54;;;;;;;10.20;4.80;;;;;;;13.83;81.12;101274.65;217915;1288;143470;-87
2023/05/25 22:24:54;;;;;;;13.00;4.80;;;;;;;13.75;81.62;101283.11;218568;1288;96021;-87
2023/05/25 22:29:55;;;;;;;11.70;5.30;;;;;;;13.66;82.43;101288.77;217969;1288;142678;-87
2023/05/25 22:34:55;;;;;;;14.30;5.10;;;;;;;13.56;82.35;101290.30;218473;1288;138882;-87